DAL16PY KRDU-KIAD
Flight info
| Callsign | DAL16PY |
|---|---|
| Flight time | 0h 41m |
| Altitude | 27000 |
| Route | OXFRD5 CARML DORRN CAVLR6 |
| Aircraft | A20N/M-SDE2E3FGHIRWXY/LB1 |
Departure
| Time | 2026-05-07 01:34 |
|---|---|
| Airport | Raleigh-Durham International Airport (KRDU) |
Arrival
| Time | 2026-05-07 02:15 |
|---|---|
| Airport | Washington Dulles International Airport (KIAD) |
| Time | Latitude | Longitude | Altitude | Speed | Heading |
|---|---|---|---|---|---|
| 2026-05-07 01:31 | 35.89295 | -78.77720 | 404 ft | 0 kts | 314° |
| 2026-05-07 01:33 | 35.89305 | -78.77733 | 404 ft | 6 kts | 313° |
| 2026-05-07 01:33 | 35.89352 | -78.77800 | 403 ft | 12 kts | 288° |
| 2026-05-07 01:34 | 35.89276 | -78.77937 | 402 ft | 43 kts | 225° |
| 2026-05-07 01:34 | 35.88882 | -78.78423 | 401 ft | 115 kts | 225° |
| 2026-05-07 01:34 | 35.88178 | -78.79292 | 484 ft | 161 kts | 224° |
| 2026-05-07 01:34 | 35.87387 | -78.80280 | 1068 ft | 164 kts | 225° |
| 2026-05-07 01:35 | 35.86589 | -78.81240 | 1884 ft | 159 kts | 225° |
| 2026-05-07 01:35 | 35.85814 | -78.82134 | 2610 ft | 156 kts | 225° |
| 2026-05-07 01:35 | 35.84993 | -78.83044 | 3093 ft | 168 kts | 225° |
| 2026-05-07 01:35 | 35.84077 | -78.84050 | 3533 ft | 185 kts | 225° |
| 2026-05-07 01:36 | 35.83055 | -78.85172 | 3904 ft | 209 kts | 224° |
| 2026-05-07 01:36 | 35.81924 | -78.86390 | 4409 ft | 228 kts | 222° |
| 2026-05-07 01:36 | 35.80632 | -78.87646 | 5004 ft | 244 kts | 221° |
| 2026-05-07 01:36 | 35.79287 | -78.88930 | 5764 ft | 251 kts | 224° |
| 2026-05-07 01:37 | 35.78249 | -78.90627 | 6590 ft | 251 kts | 250° |
| 2026-05-07 01:37 | 35.78101 | -78.92704 | 7496 ft | 252 kts | 276° |
| 2026-05-07 01:37 | 35.78562 | -78.94799 | 8329 ft | 260 kts | 293° |
| 2026-05-07 01:37 | 35.79689 | -78.96539 | 9149 ft | 273 kts | 317° |
| 2026-05-07 01:38 | 35.81443 | -78.97517 | 10014 ft | 287 kts | 344° |
| 2026-05-07 01:38 | 35.83469 | -78.97366 | 10697 ft | 311 kts | 12° |
| 2026-05-07 01:38 | 35.85507 | -78.96175 | 11176 ft | 333 kts | 23° |
| 2026-05-07 01:38 | 35.87592 | -78.94730 | 11559 ft | 351 kts | 24° |
| 2026-05-07 01:39 | 35.89748 | -78.93206 | 11897 ft | 368 kts | 24° |
| 2026-05-07 01:39 | 35.92009 | -78.91613 | 11969 ft | 375 kts | 24° |
| 2026-05-07 01:39 | 35.94246 | -78.90041 | 11987 ft | 374 kts | 24° |
| 2026-05-07 01:39 | 35.96534 | -78.88444 | 11989 ft | 375 kts | 24° |
| 2026-05-07 01:40 | 35.98787 | -78.86877 | 11978 ft | 375 kts | 24° |
| 2026-05-07 01:40 | 36.01082 | -78.85285 | 11988 ft | 377 kts | 24° |
| 2026-05-07 01:40 | 36.03351 | -78.83711 | 11986 ft | 376 kts | 24° |
| 2026-05-07 01:40 | 36.05650 | -78.82114 | 11987 ft | 376 kts | 24° |
| 2026-05-07 01:41 | 36.07915 | -78.80541 | 11993 ft | 376 kts | 24° |
| 2026-05-07 01:41 | 36.10209 | -78.78947 | 11985 ft | 375 kts | 24° |
| 2026-05-07 01:41 | 36.12475 | -78.77378 | 11986 ft | 375 kts | 24° |
| 2026-05-07 01:41 | 36.14833 | -78.75747 | 11999 ft | 377 kts | 24° |
| 2026-05-07 01:42 | 36.17134 | -78.74153 | 12384 ft | 386 kts | 24° |
| 2026-05-07 01:42 | 36.19477 | -78.72520 | 13253 ft | 385 kts | 24° |
| 2026-05-07 01:42 | 36.21794 | -78.70906 | 13994 ft | 388 kts | 24° |
| 2026-05-07 01:42 | 36.24163 | -78.69252 | 14717 ft | 391 kts | 24° |
| 2026-05-07 01:43 | 36.26517 | -78.67607 | 15371 ft | 395 kts | 23° |
| 2026-05-07 01:43 | 36.28929 | -78.65920 | 16033 ft | 398 kts | 23° |
| 2026-05-07 01:43 | 36.31334 | -78.64241 | 16628 ft | 403 kts | 23° |
| 2026-05-07 01:43 | 36.33809 | -78.62557 | 17278 ft | 404 kts | 20° |
| 2026-05-07 01:44 | 36.36340 | -78.61131 | 17857 ft | 403 kts | 14° |
| 2026-05-07 01:44 | 36.39005 | -78.59981 | 18427 ft | 403 kts | 9° |
| 2026-05-07 01:44 | 36.41681 | -78.59013 | 19024 ft | 405 kts | 8° |
| 2026-05-07 01:44 | 36.44423 | -78.58053 | 19564 ft | 409 kts | 8° |
| 2026-05-07 01:45 | 36.47145 | -78.57095 | 19870 ft | 412 kts | 8° |
| 2026-05-07 01:45 | 36.49928 | -78.56108 | 19921 ft | 414 kts | 8° |
| 2026-05-07 01:45 | 36.52723 | -78.55112 | 19934 ft | 416 kts | 8° |
| 2026-05-07 01:45 | 36.55474 | -78.54121 | 19938 ft | 414 kts | 8° |
| 2026-05-07 01:46 | 36.58230 | -78.53129 | 19939 ft | 415 kts | 7° |
| 2026-05-07 01:46 | 36.61022 | -78.52124 | 19933 ft | 415 kts | 8° |
| 2026-05-07 01:46 | 36.63769 | -78.51130 | 19935 ft | 413 kts | 7° |
| 2026-05-07 01:46 | 36.66556 | -78.50127 | 19930 ft | 415 kts | 7° |
| 2026-05-07 01:47 | 36.69351 | -78.49126 | 19931 ft | 416 kts | 8° |
| 2026-05-07 01:47 | 36.72107 | -78.48086 | 19938 ft | 418 kts | 10° |
| 2026-05-07 01:47 | 36.74836 | -78.46723 | 19936 ft | 424 kts | 17° |
| 2026-05-07 01:47 | 36.77444 | -78.45001 | 19935 ft | 431 kts | 23° |
| 2026-05-07 01:48 | 36.79993 | -78.43002 | 19934 ft | 433 kts | 25° |
| 2026-05-07 01:48 | 36.82494 | -78.40954 | 19933 ft | 434 kts | 25° |
| 2026-05-07 01:48 | 36.85028 | -78.38868 | 19932 ft | 432 kts | 25° |
| 2026-05-07 01:48 | 36.87522 | -78.36819 | 19935 ft | 432 kts | 25° |
| 2026-05-07 01:49 | 36.90023 | -78.34768 | 19932 ft | 432 kts | 25° |
| 2026-05-07 01:49 | 36.92565 | -78.32684 | 19925 ft | 432 kts | 25° |
| 2026-05-07 01:49 | 36.95054 | -78.30640 | 19922 ft | 432 kts | 25° |
| 2026-05-07 01:49 | 36.97580 | -78.28572 | 19924 ft | 433 kts | 25° |
| 2026-05-07 01:50 | 37.00104 | -78.26505 | 19795 ft | 428 kts | 25° |
| 2026-05-07 01:50 | 37.02560 | -78.24491 | 19314 ft | 425 kts | 25° |
| 2026-05-07 01:50 | 37.05041 | -78.22462 | 18720 ft | 424 kts | 25° |
| 2026-05-07 01:50 | 37.07475 | -78.20474 | 18192 ft | 421 kts | 25° |
| 2026-05-07 01:51 | 37.09929 | -78.18465 | 17668 ft | 418 kts | 24° |
| 2026-05-07 01:51 | 37.12346 | -78.16498 | 17161 ft | 414 kts | 25° |
| 2026-05-07 01:51 | 37.14765 | -78.14529 | 16670 ft | 410 kts | 25° |
| 2026-05-07 01:51 | 37.17127 | -78.12602 | 16206 ft | 406 kts | 26° |
| 2026-05-07 01:52 | 37.19489 | -78.10667 | 15704 ft | 403 kts | 26° |
| 2026-05-07 01:52 | 37.21807 | -78.08767 | 15190 ft | 401 kts | 26° |
| 2026-05-07 01:52 | 37.24139 | -78.06848 | 14736 ft | 396 kts | 26° |
| 2026-05-07 01:52 | 37.26411 | -78.04978 | 14253 ft | 393 kts | 27° |
| 2026-05-07 01:53 | 37.28689 | -78.03102 | 13961 ft | 388 kts | 27° |
| 2026-05-07 01:53 | 37.30946 | -78.01240 | 13563 ft | 384 kts | 27° |
| 2026-05-07 01:53 | 37.33163 | -77.99434 | 13026 ft | 382 kts | 25° |
| 2026-05-07 01:53 | 37.35467 | -77.97773 | 12512 ft | 377 kts | 22° |
| 2026-05-07 01:54 | 37.37783 | -77.96353 | 12021 ft | 372 kts | 18° |
| 2026-05-07 01:54 | 37.40179 | -77.95136 | 11509 ft | 368 kts | 14° |
| 2026-05-07 01:54 | 37.42552 | -77.94071 | 11024 ft | 365 kts | 14° |
| 2026-05-07 01:54 | 37.44956 | -77.93019 | 10532 ft | 362 kts | 14° |
| 2026-05-07 01:55 | 37.47284 | -77.91996 | 10314 ft | 351 kts | 14° |
| 2026-05-07 01:55 | 37.49568 | -77.90985 | 10113 ft | 340 kts | 14° |
| 2026-05-07 01:55 | 37.51749 | -77.90012 | 9929 ft | 330 kts | 15° |
| 2026-05-07 01:55 | 37.53875 | -77.88970 | 9746 ft | 321 kts | 18° |
| 2026-05-07 01:56 | 37.55881 | -77.87869 | 9570 ft | 313 kts | 19° |
| 2026-05-07 01:56 | 37.57861 | -77.86742 | 9289 ft | 308 kts | 19° |
| 2026-05-07 01:56 | 37.59816 | -77.85626 | 8929 ft | 306 kts | 19° |
| 2026-05-07 01:56 | 37.61732 | -77.84533 | 8565 ft | 305 kts | 19° |
| 2026-05-07 01:57 | 37.63669 | -77.83431 | 8196 ft | 303 kts | 19° |
| 2026-05-07 01:57 | 37.65570 | -77.82349 | 7840 ft | 301 kts | 19° |
| 2026-05-07 01:57 | 37.67488 | -77.81281 | 7483 ft | 299 kts | 19° |
| 2026-05-07 01:57 | 37.69398 | -77.80226 | 7136 ft | 297 kts | 19° |
| 2026-05-07 01:58 | 37.71270 | -77.79195 | 6892 ft | 295 kts | 19° |
| 2026-05-07 01:58 | 37.73161 | -77.78149 | 6734 ft | 293 kts | 19° |
| 2026-05-07 01:58 | 37.75020 | -77.77117 | 6733 ft | 294 kts | 19° |
| 2026-05-07 01:58 | 37.76912 | -77.76067 | 6731 ft | 295 kts | 19° |
| 2026-05-07 01:59 | 37.78776 | -77.75030 | 6726 ft | 296 kts | 19° |
| 2026-05-07 01:59 | 37.80672 | -77.73975 | 6631 ft | 295 kts | 19° |
| 2026-05-07 01:59 | 37.82534 | -77.72939 | 6535 ft | 294 kts | 19° |
| 2026-05-07 01:59 | 37.84420 | -77.71889 | 6435 ft | 294 kts | 19° |
| 2026-05-07 02:00 | 37.86278 | -77.70855 | 6402 ft | 294 kts | 19° |
| 2026-05-07 02:00 | 37.88160 | -77.69808 | 6406 ft | 293 kts | 19° |
| 2026-05-07 02:00 | 37.90010 | -77.68778 | 6408 ft | 293 kts | 19° |
| 2026-05-07 02:00 | 37.91892 | -77.67725 | 6411 ft | 293 kts | 19° |
| 2026-05-07 02:01 | 37.93749 | -77.66692 | 6414 ft | 293 kts | 19° |
| 2026-05-07 02:01 | 37.95633 | -77.65639 | 6412 ft | 294 kts | 19° |
| 2026-05-07 02:01 | 37.97488 | -77.64600 | 6413 ft | 294 kts | 19° |
| 2026-05-07 02:01 | 37.99374 | -77.63546 | 6348 ft | 294 kts | 19° |
| 2026-05-07 02:02 | 38.01224 | -77.62511 | 6099 ft | 291 kts | 19° |
| 2026-05-07 02:02 | 38.03080 | -77.61468 | 6011 ft | 289 kts | 19° |
| 2026-05-07 02:02 | 38.04909 | -77.60444 | 6007 ft | 290 kts | 19° |
| 2026-05-07 02:02 | 38.06744 | -77.59334 | 5992 ft | 292 kts | 22° |
| 2026-05-07 02:03 | 38.08579 | -77.58174 | 5985 ft | 292 kts | 22° |
| 2026-05-07 02:03 | 38.10374 | -77.57027 | 5989 ft | 292 kts | 22° |
| 2026-05-07 02:03 | 38.12216 | -77.55859 | 5987 ft | 292 kts | 22° |
| 2026-05-07 02:03 | 38.13961 | -77.54755 | 5998 ft | 292 kts | 22° |
| 2026-05-07 02:04 | 38.15777 | -77.53604 | 5971 ft | 292 kts | 22° |
| 2026-05-07 02:04 | 38.17580 | -77.52455 | 5983 ft | 292 kts | 22° |
| 2026-05-07 02:04 | 38.19410 | -77.51289 | 5990 ft | 292 kts | 21° |
| 2026-05-07 02:04 | 38.21303 | -77.50526 | 5977 ft | 283 kts | 359° |
| 2026-05-07 02:05 | 38.23264 | -77.50536 | 5992 ft | 279 kts | 351° |
| 2026-05-07 02:05 | 38.25212 | -77.50716 | 5996 ft | 279 kts | 349° |
| 2026-05-07 02:05 | 38.27135 | -77.50922 | 5997 ft | 279 kts | 349° |
| 2026-05-07 02:05 | 38.29091 | -77.51135 | 5999 ft | 279 kts | 349° |
| 2026-05-07 02:06 | 38.31032 | -77.51353 | 5997 ft | 279 kts | 349° |
| 2026-05-07 02:06 | 38.32952 | -77.51567 | 5997 ft | 279 kts | 349° |
| 2026-05-07 02:06 | 38.34906 | -77.51795 | 5997 ft | 280 kts | 350° |
| 2026-05-07 02:06 | 38.36850 | -77.51709 | 5995 ft | 286 kts | 4° |
| 2026-05-07 02:07 | 38.38797 | -77.51042 | 5998 ft | 290 kts | 15° |
| 2026-05-07 02:07 | 38.42536 | -77.49084 | 5999 ft | 292 kts | 18° |
| 2026-05-07 02:07 | 38.44423 | -77.48074 | 6000 ft | 292 kts | 18° |
| 2026-05-07 02:08 | 38.46318 | -77.47237 | 6003 ft | 291 kts | 14° |
| 2026-05-07 02:08 | 38.48218 | -77.46289 | 6004 ft | 293 kts | 18° |
| 2026-05-07 02:08 | 38.50099 | -77.45254 | 6008 ft | 293 kts | 19° |
| 2026-05-07 02:08 | 38.51957 | -77.44242 | 6007 ft | 292 kts | 14° |
| 2026-05-07 02:09 | 38.53928 | -77.43687 | 6007 ft | 286 kts | 1° |
| 2026-05-07 02:09 | 38.55878 | -77.43700 | 6009 ft | 280 kts | 347° |
| 2026-05-07 02:09 | 38.57814 | -77.44049 | 6011 ft | 279 kts | 345° |
| 2026-05-07 02:09 | 38.59715 | -77.44457 | 6010 ft | 278 kts | 344° |
| 2026-05-07 02:10 | 38.61661 | -77.44716 | 5954 ft | 285 kts | 359° |
| 2026-05-07 02:10 | 38.63621 | -77.44356 | 5735 ft | 287 kts | 3° |
| 2026-05-07 02:10 | 38.65604 | -77.44072 | 5382 ft | 283 kts | 358° |
| 2026-05-07 02:10 | 38.67546 | -77.43986 | 5017 ft | 281 kts | 355° |
| 2026-05-07 02:11 | 38.69488 | -77.43961 | 4641 ft | 273 kts | 355° |
| 2026-05-07 02:11 | 38.71351 | -77.43943 | 4289 ft | 260 kts | 355° |
| 2026-05-07 02:11 | 38.73132 | -77.43922 | 3957 ft | 249 kts | 355° |
| 2026-05-07 02:11 | 38.74800 | -77.43899 | 3729 ft | 236 kts | 355° |
| 2026-05-07 02:12 | 38.76426 | -77.43876 | 3512 ft | 228 kts | 355° |
| 2026-05-07 02:12 | 38.77996 | -77.43855 | 3242 ft | 226 kts | 356° |
| 2026-05-07 02:12 | 38.79563 | -77.43833 | 3039 ft | 221 kts | 356° |
| 2026-05-07 02:12 | 38.81050 | -77.43810 | 3002 ft | 209 kts | 356° |
| 2026-05-07 02:13 | 38.82500 | -77.43788 | 2668 ft | 208 kts | 356° |
| 2026-05-07 02:13 | 38.83899 | -77.43767 | 2175 ft | 198 kts | 357° |
| 2026-05-07 02:13 | 38.85246 | -77.43748 | 1716 ft | 188 kts | 357° |
| 2026-05-07 02:13 | 38.86499 | -77.43729 | 1474 ft | 170 kts | 358° |
| 2026-05-07 02:14 | 38.87633 | -77.43713 | 1172 ft | 154 kts | 358° |
| 2026-05-07 02:14 | 38.88625 | -77.43708 | 1081 ft | 135 kts | 357° |
| 2026-05-07 02:14 | 38.89564 | -77.43680 | 883 ft | 137 kts | 359° |
| 2026-05-07 02:14 | 38.90515 | -77.43673 | 714 ft | 136 kts | 358° |
| 2026-05-07 02:15 | 38.91447 | -77.43660 | 548 ft | 130 kts | 359° |
| 2026-05-07 02:15 | 38.92380 | -77.43645 | 371 ft | 134 kts | 359° |
| 2026-05-07 02:15 | 38.93267 | -77.43633 | 313 ft | 117 kts | 1° |
| 2026-05-07 02:15 | 38.93745 | -77.43629 | 310 ft | 28 kts | 0° |
| 2026-05-07 02:16 | 38.93934 | -77.43667 | 309 ft | 26 kts | 338° |
| 2026-05-07 02:16 | 38.94091 | -77.43771 | 307 ft | 24 kts | 330° |
| 2026-05-07 02:16 | 38.94240 | -77.43851 | 305 ft | 22 kts | 347° |
| 2026-05-07 02:16 | 38.94379 | -77.43861 | 304 ft | 14 kts | 357° |
| 2026-05-07 02:17 | 38.94410 | -77.43930 | 303 ft | 11 kts | 268° |
| 2026-05-07 02:17 | 38.94407 | -77.44041 | 303 ft | 8 kts | 274° |
| 2026-05-07 02:17 | 38.94448 | -77.44074 | 302 ft | 7 kts | 353° |
| 2026-05-07 02:17 | 38.94492 | -77.44084 | 302 ft | 6 kts | 343° |
| 2026-05-07 02:18 | 38.94505 | -77.44089 | 301 ft | 0 kts | 341° |